Roblin, Canada
Current Conditions -  °F | °C
As of 12:00 AM on Friday 19 Dec 2014 (Local Time) from CYQV Reporting Station
Overcast Overcast  
Wind Chill: 13°   Ceiling: 500
Heat Index: 19°   Visibility: 7mi
Dew Point: 18°   Wind: 5mph
Humidity: 93%   Direction: 140°SE
Pressure: 29.93"   Gusts: NA
Location:  51.23°N, 101.35°W
Report Text: CYQV 190600Z AUTO 14004KT 7SM OVC005 M07/M08 A2993 RMK SLP171
Loading
Personal Weather Stations






























Interactive Weather Map New forecast layout! Learn more

10-Day Weather Forecast

Advertisements
Track Severe Weather on mobile